Time;durP1;ratioP1;P1;durP2;ratioP2;P2;SDS_P1;SDS_P2;PMS_P1;PMS_P2;Temp;Humidity;BMP_temperature;BMP_pressure;BME280_temperature;BME280_humidity;BME280_pressure;Samples;Min_cycle;Max_cycle;Signal;HPM_P1;HPM_P2
2022/03/18 00:01:05;;;;;;;8.15;3.00;;;27.00;99.90;;;;;;5008699;28;20076;-66
2022/03/18 00:03:31;;;;;;;12.05;5.10;;;26.80;99.90;;;;;;5025136;28;20391;-64
2022/03/18 00:05:58;;;;;;;6.43;2.65;;;26.80;99.90;;;;;;5019867;28;20014;-64
2022/03/18 00:08:25;;;;;;;5.95;3.33;;;26.70;99.90;;;;;;5017284;28;20114;-63
2022/03/18 00:10:55;;;;;;;6.47;2.97;;;26.70;99.90;;;;;;5020007;28;20031;-68
2022/03/18 00:13:22;;;;;;;7.13;2.80;;;26.60;99.90;;;;;;5015465;28;20037;-68
2022/03/18 00:15:49;;;;;;;9.30;3.03;;;26.60;99.90;;;;;;5012153;28;20053;-67
2022/03/18 00:18:16;;;;;;;5.22;2.63;;;26.60;99.90;;;;;;5016280;28;20041;-71
2022/03/18 00:20:43;;;;;;;4.70;2.33;;;26.70;99.90;;;;;;5018196;28;20471;-65
2022/03/18 00:23:12;;;;;;;4.30;2.22;;;26.80;99.90;;;;;;5014401;28;20389;-67
2022/03/18 00:25:39;;;;;;;5.82;2.40;;;26.80;99.90;;;;;;5012279;28;20211;-70
2022/03/18 00:28:06;;;;;;;6.80;2.47;;;26.90;99.90;;;;;;5006204;28;20095;-64
2022/03/18 00:30:33;;;;;;;7.38;2.40;;;27.10;99.90;;;;;;5013406;28;20488;-66
2022/03/18 00:33:00;;;;;;;7.15;2.78;;;27.20;99.90;;;;;;5012094;28;20028;-68
2022/03/18 00:35:27;;;;;;;9.45;4.93;;;27.30;99.90;;;;;;4994768;28;20041;-70
2022/03/18 00:37:54;;;;;;;8.27;2.80;;;27.40;99.90;;;;;;5011929;28;20068;-64
2022/03/18 00:40:21;;;;;;;7.30;3.75;;;27.70;99.90;;;;;;5012973;28;20033;-64
2022/03/18 00:42:48;;;;;;;7.50;3.47;;;27.80;99.90;;;;;;5015798;28;20108;-69
2022/03/18 00:45:15;;;;;;;9.23;2.80;;;28.10;99.90;;;;;;5012348;28;20407;-69
2022/03/18 00:53:12;;;;;;;6.13;2.60;;;28.50;99.90;;;;;;5011935;28;20040;-65
2022/03/18 00:55:39;;;;;;;6.07;2.17;;;28.60;99.90;;;;;;5022650;28;20026;-67
2022/03/18 00:58:06;;;;;;;5.35;2.00;;;28.70;99.90;;;;;;5026338;28;20121;-68
2022/03/18 01:00:33;;;;;;;6.05;2.78;;;28.60;99.90;;;;;;5023761;28;20034;-64
2022/03/18 01:03:00;;;;;;;6.30;2.60;;;28.60;99.90;;;;;;5018255;28;20120;-66
2022/03/18 01:05:27;;;;;;;7.38;2.88;;;28.70;99.90;;;;;;5011624;28;20080;-63
2022/03/18 01:07:54;;;;;;;9.73;4.22;;;29.00;99.90;;;;;;5006253;28;20101;-67
2022/03/18 01:10:22;;;;;;;8.25;2.85;;;29.60;99.90;;;;;;5013752;28;20032;-70
2022/03/18 01:12:49;;;;;;;7.75;2.75;;;30.10;99.90;;;;;;5006396;28;20425;-68
2022/03/18 01:15:16;;;;;;;10.50;2.80;;;30.40;99.90;;;;;;4992679;28;20464;-64
2022/03/18 01:17:43;;;;;;;6.40;2.47;;;30.20;99.90;;;;;;5018181;28;20040;-64
2022/03/18 01:20:10;;;;;;;7.75;2.60;;;30.20;99.90;;;;;;5004874;28;20837;-65
2022/03/18 01:22:38;;;;;;;7.85;2.83;;;30.10;99.90;;;;;;5013272;28;20022;-67
2022/03/18 01:25:06;;;;;;;6.40;2.83;;;30.20;99.90;;;;;;5019872;28;20018;-68
2022/03/18 01:27:33;;;;;;;8.23;2.65;;;30.20;99.90;;;;;;5018780;28;20049;-65
2022/03/18 01:30:00;;;;;;;6.15;3.72;;;30.80;99.90;;;;;;5020963;28;20078;-68
2022/03/18 01:32:27;;;;;;;6.32;2.60;;;31.50;99.90;;;;;;5019517;28;20379;-68
2022/03/18 01:34:54;;;;;;;5.80;2.38;;;32.10;99.90;;;;;;5021233;28;20424;-64
2022/03/18 01:37:21;;;;;;;9.63;3.30;;;32.40;99.90;;;;;;5017161;28;20058;-65
2022/03/18 01:39:48;;;;;;;13.60;3.60;;;32.80;98.40;;;;;;5021423;28;20072;-66
2022/03/18 01:42:15;;;;;;;9.77;2.97;;;32.90;98.70;;;;;;5017566;28;20129;-65
2022/03/18 01:44:44;;;;;;;10.65;3.15;;;32.20;99.00;;;;;;5018937;28;20775;-65
2022/03/18 01:47:11;;;;;;;10.80;2.70;;;31.50;99.20;;;;;;5023932;28;20026;-68
2022/03/18 01:49:39;;;;;;;6.50;3.05;;;31.10;99.70;;;;;;5021189;28;20041;-66
2022/03/18 01:52:09;;;;;;;7.82;4.20;;;31.40;99.70;;;;;;5021893;28;20033;-68
2022/03/18 01:54:47;;;;;;;5.60;2.85;;;31.90;99.90;;;;;;5020784;28;20028;-69
2022/03/18 01:57:19;;;;;;;5.95;2.80;;;31.90;99.00;;;;;;5001402;28;20033;-68
2022/03/18 01:59:47;;;;;;;6.03;2.50;;;31.80;99.70;;;;;;5010331;28;20108;-65
2022/03/18 02:02:15;;;;;;;12.55;8.32;;;32.00;99.90;;;;;;5011767;28;20033;-67
2022/03/18 02:04:46;;;;;;;7.30;4.90;;;32.40;99.50;;;;;;5006392;28;20441;-66
2022/03/18 02:07:14;;;;;;;7.47;3.40;;;32.80;99.50;;;;;;5011694;28;20542;-65
2022/03/18 02:09:43;;;;;;;5.03;2.50;;;33.00;99.10;;;;;;5010925;28;20056;-67
2022/03/18 02:12:11;;;;;;;7.55;2.35;;;33.00;96.90;;;;;;5011364;28;20036;-66
2022/03/18 02:14:43;;;;;;;6.25;2.42;;;33.00;97.20;;;;;;5017560;28;20504;-66
2022/03/18 02:17:12;;;;;;;5.68;2.53;;;33.00;96.90;;;;;;4670137;28;10000466;-67
2022/03/18 02:19:40;;;;;;;3.95;2.15;;;32.90;97.20;;;;;;5015133;28;20030;-67
2022/03/18 02:22:16;;;;;;;5.15;2.97;;;33.20;97.40;;;;;;5012468;28;20052;-67
2022/03/18 02:24:45;;;;;;;5.15;2.25;;;33.60;96.30;;;;;;5006148;28;20302;-68
2022/03/18 02:27:12;;;;;;;5.53;2.75;;;33.70;95.90;;;;;;5006353;28;20076;-68
2022/03/18 02:29:40;;;;;;;7.45;2.53;;;33.60;95.40;;;;;;5017365;28;20087;-67
2022/03/18 02:32:08;;;;;;;4.65;2.38;;;33.50;95.90;;;;;;5019019;28;20321;-67
2022/03/18 02:34:37;;;;;;;6.15;2.80;;;33.60;96.10;;;;;;5009005;28;20033;-69
2022/03/18 02:37:08;;;;;;;4.55;2.30;;;33.80;96.70;;;;;;5010732;28;20447;-68
2022/03/18 02:39:35;;;;;;;5.35;2.63;;;33.90;95.40;;;;;;5014043;28;20377;-67
2022/03/18 02:42:04;;;;;;;4.97;2.33;;;34.10;95.60;;;;;;4994186;28;20025;-67
2022/03/18 02:44:32;;;;;;;4.93;3.17;;;33.90;94.20;;;;;;5016354;28;20419;-67
2022/03/18 02:46:59;;;;;;;4.80;3.20;;;33.90;93.80;;;;;;5018850;28;20045;-67
2022/03/18 02:49:26;;;;;;;4.28;2.38;;;33.90;93.80;;;;;;5015065;28;20116;-68
2022/03/18 02:51:53;;;;;;;5.68;2.80;;;34.20;93.70;;;;;;5013873;28;20022;-68
2022/03/18 02:54:20;;;;;;;5.85;2.70;;;34.50;93.20;;;;;;5008938;28;20033;-70
2022/03/18 02:56:47;;;;;;;4.45;2.30;;;34.20;92.30;;;;;;5005941;28;20030;-66
2022/03/18 02:59:14;;;;;;;6.90;2.40;;;34.10;93.60;;;;;;5014204;28;20389;-65
2022/03/18 03:01:41;;;;;;;3.92;2.20;;;33.50;92.00;;;;;;5018300;28;20044;-66
2022/03/18 03:04:08;;;;;;;4.97;2.55;;;32.80;93.40;;;;;;5019945;28;20026;-67
2022/03/18 03:09:20;;;;;;;6.28;2.33;;;32.10;94.70;;;;;;5012481;28;20098;-67
2022/03/18 03:11:48;;;;;;;6.22;2.72;;;31.80;95.20;;;;;;5019661;28;20033;-65
2022/03/18 03:14:15;;;;;;;7.28;2.50;;;31.60;95.20;;;;;;5016604;28;20390;-66
2022/03/18 03:16:42;;;;;;;7.43;2.70;;;31.70;95.20;;;;;;5015674;28;20036;-68
2022/03/18 03:19:09;;;;;;;4.50;2.50;;;32.00;95.30;;;;;;5012380;28;20033;-65
2022/03/18 03:21:37;;;;;;;3.78;2.13;;;32.70;94.50;;;;;;5007382;28;20391;-65
2022/03/18 03:24:04;;;;;;;4.75;2.70;;;33.20;93.20;;;;;;5002322;28;20033;-68
2022/03/18 03:26:31;;;;;;;4.20;2.08;;;33.40;92.70;;;;;;4989679;28;20029;-67
2022/03/18 03:28:58;;;;;;;6.60;2.35;;;33.10;93.70;;;;;;5012658;28;20091;-67
2022/03/18 03:31:25;;;;;;;5.78;2.28;;;33.00;93.30;;;;;;5001225;28;20026;-68
2022/03/18 03:33:53;;;;;;;4.60;2.30;;;32.90;93.70;;;;;;5007468;28;20029;-70
2022/03/18 03:36:20;;;;;;;6.90;2.60;;;32.90;93.50;;;;;;5018680;28;20033;-69
2022/03/18 03:38:47;;;;;;;6.43;3.03;;;32.80;93.80;;;;;;5009067;28;20037;-69
2022/03/18 03:41:14;;;;;;;8.57;2.30;;;32.60;93.40;;;;;;5015080;28;20030;-70
2022/03/18 03:43:42;;;;;;;6.72;2.65;;;32.30;93.70;;;;;;5014738;28;20029;-67
2022/03/18 03:46:09;;;;;;;6.15;2.40;;;32.30;93.70;;;;;;5024573;28;20253;-68
2022/03/18 03:48:36;;;;;;;4.28;2.10;;;32.50;94.00;;;;;;5024420;28;20068;-70
2022/03/18 03:51:03;;;;;;;7.93;1.95;;;32.60;93.20;;;;;;5014963;28;20076;-69
2022/03/18 03:53:30;;;;;;;4.15;2.33;;;33.30;93.20;;;;;;5015156;28;20041;-70
2022/03/18 03:55:57;;;;;;;5.90;2.38;;;33.90;92.70;;;;;;5023424;28;20103;-70
2022/03/18 03:58:24;;;;;;;5.43;2.30;;;34.50;91.70;;;;;;5018662;28;20060;-69
2022/03/18 04:00:51;;;;;;;4.55;2.50;;;34.50;91.30;;;;;;5008635;28;20033;-67
2022/03/18 04:03:18;;;;;;;5.20;2.30;;;34.30;91.10;;;;;;5013823;28;20443;-68
2022/03/18 04:05:45;;;;;;;5.95;2.55;;;33.90;91.50;;;;;;5020447;28;20121;-66
2022/03/18 04:08:12;;;;;;;4.03;2.10;;;33.80;90.70;;;;;;5018267;28;20049;-66
2022/03/18 04:10:42;;;;;;;6.25;2.20;;;33.40;91.30;;;;;;5012400;28;20049;-68
2022/03/18 04:13:10;;;;;;;4.65;2.00;;;32.60;91.70;;;;;;5024003;28;20105;-68
2022/03/18 04:15:38;;;;;;;6.45;2.65;;;32.20;92.40;;;;;;5012426;28;20341;-68
2022/03/18 04:18:05;;;;;;;5.53;2.35;;;32.00;92.20;;;;;;5009129;28;20022;-68
2022/03/18 04:20:33;;;;;;;4.22;1.85;;;31.80;92.10;;;;;;5008312;28;20093;-68
2022/03/18 04:23:01;;;;;;;5.90;2.40;;;31.60;92.20;;;;;;5018386;28;20037;-69
2022/03/18 04:25:29;;;;;;;5.95;2.15;;;31.40;93.00;;;;;;5021173;28;20148;-66
2022/03/18 04:27:56;;;;;;;6.32;2.13;;;31.30;92.90;;;;;;4993618;28;20388;-68
2022/03/18 04:30:23;;;;;;;5.78;2.03;;;31.40;93.10;;;;;;5011926;28;20468;-66
2022/03/18 04:32:50;;;;;;;5.18;1.90;;;31.20;93.40;;;;;;5016365;28;20037;-68
2022/03/18 04:35:17;;;;;;;3.75;1.98;;;31.30;93.90;;;;;;5015144;28;20073;-68
2022/03/18 04:37:44;;;;;;;3.08;1.73;;;31.60;93.50;;;;;;5029979;28;20231;-67
2022/03/18 04:40:13;;;;;;;4.90;1.95;;;31.90;92.70;;;;;;5011995;28;20029;-68
2022/03/18 04:42:41;;;;;;;3.53;1.85;;;32.00;92.30;;;;;;5013412;28;20030;-68
2022/03/18 04:45:09;;;;;;;5.53;2.17;;;31.80;92.00;;;;;;5015403;28;20033;-68
2022/03/18 04:47:36;;;;;;;4.40;2.35;;;31.70;92.40;;;;;;5009868;28;20032;-67
2022/03/18 04:50:04;;;;;;;4.22;2.25;;;31.60;92.70;;;;;;5012636;28;20056;-68
2022/03/18 04:52:31;;;;;;;5.30;2.10;;;31.70;92.40;;;;;;5009553;28;20061;-68
2022/03/18 04:54:58;;;;;;;6.60;2.30;;;31.90;92.60;;;;;;5016570;28;20613;-67
2022/03/18 04:57:25;;;;;;;5.75;2.00;;;32.30;92.80;;;;;;5021914;28;20049;-68
2022/03/18 04:59:52;;;;;;;4.95;1.67;;;32.90;92.30;;;;;;5019362;28;20551;-66
2022/03/18 05:02:24;;;;;;;4.78;2.08;;;32.70;92.20;;;;;;5017618;28;20026;-68
2022/03/18 05:04:53;;;;;;;2.88;1.92;;;32.90;92.70;;;;;;5011656;28;20021;-66
2022/03/18 05:07:20;;;;;;;5.75;2.30;;;33.00;91.60;;;;;;5009921;28;20120;-66
2022/03/18 05:09:48;;;;;;;4.10;2.10;;;32.90;92.20;;;;;;5019677;28;20480;-68
2022/03/18 05:12:17;;;;;;;8.32;1.80;;;32.60;92.60;;;;;;5013653;28;20022;-68
2022/03/18 05:14:44;;;;;;;6.07;1.95;;;32.50;92.30;;;;;;5023264;28;20057;-69
2022/03/18 05:17:11;;;;;;;3.38;1.50;;;32.00;93.10;;;;;;5011400;28;20435;-69
2022/03/18 05:19:39;;;;;;;6.00;1.98;;;32.00;93.30;;;;;;5020870;28;20036;-69
2022/03/18 05:22:07;;;;;;;5.90;1.77;;;32.30;93.30;;;;;;5016022;28;20180;-69
2022/03/18 05:24:35;;;;;;;6.07;2.20;;;32.70;91.80;;;;;;5027067;28;20442;-68
2022/03/18 05:27:03;;;;;;;4.90;2.20;;;32.60;91.90;;;;;;5018203;28;20030;-66
2022/03/18 05:29:30;;;;;;;6.15;2.20;;;32.30;92.40;;;;;;5021854;28;20446;-69
2022/03/18 05:31:58;;;;;;;3.85;1.95;;;32.00;92.70;;;;;;5016909;28;20029;-68
2022/03/18 05:34:25;;;;;;;3.63;1.98;;;31.60;93.10;;;;;;5011575;28;20041;-68
2022/03/18 05:36:52;;;;;;;3.38;2.05;;;31.30;93.40;;;;;;5017994;28;20042;-66
2022/03/18 05:39:19;;;;;;;3.10;1.98;;;31.10;93.90;;;;;;5012257;28;20032;-68
2022/03/18 05:41:46;;;;;;;7.47;2.53;;;31.30;93.50;;;;;;5023396;28;20025;-68
2022/03/18 05:44:13;;;;;;;6.07;1.75;;;31.70;94.40;;;;;;5013202;28;20025;-67
2022/03/18 05:46:40;;;;;;;5.85;3.70;;;32.00;94.50;;;;;;5013710;28;20056;-70
2022/03/18 05:49:07;;;;;;;4.03;2.17;;;32.00;94.10;;;;;;5018177;28;20029;-69
2022/03/18 05:51:34;;;;;;;6.68;2.55;;;32.30;93.80;;;;;;5019451;28;20068;-68
2022/03/18 05:54:01;;;;;;;3.38;1.98;;;32.70;93.30;;;;;;5017067;28;20081;-67
2022/03/18 05:59:15;;;;;;;5.93;2.05;;;32.40;93.10;;;;;;5015808;28;20451;-68
2022/03/18 06:01:43;;;;;;;4.45;1.70;;;32.10;93.50;;;;;;5010933;28;20113;-69
2022/03/18 06:04:10;;;;;;;5.60;2.15;;;31.50;94.20;;;;;;5015941;28;20030;-69
2022/03/18 06:06:39;;;;;;;8.05;2.40;;;31.10;94.80;;;;;;5013705;28;20386;-67
2022/03/18 06:11:52;;;;;;;6.03;1.85;;;30.60;95.60;;;;;;5019296;28;20505;-69
2022/03/18 06:14:29;;;;;;;6.28;2.00;;;30.30;96.10;;;;;;5017294;28;20075;-69
2022/03/18 06:16:59;;;;;;;6.35;2.00;;;30.20;96.90;;;;;;5015490;28;20021;-68
2022/03/18 06:19:27;;;;;;;7.05;1.98;;;29.90;97.10;;;;;;5016804;28;20021;-68
2022/03/18 06:21:55;;;;;;;4.88;1.85;;;29.60;97.40;;;;;;5021121;28;20033;-67
2022/03/18 06:24:23;;;;;;;5.18;2.58;;;29.20;97.90;;;;;;5010181;28;20037;-69
2022/03/18 06:26:52;;;;;;;4.55;2.35;;;28.90;98.30;;;;;;5018283;28;20026;-69
2022/03/18 06:29:19;;;;;;;3.47;1.88;;;28.70;98.80;;;;;;5010719;28;20021;-66
2022/03/18 06:31:47;;;;;;;8.38;2.80;;;28.50;99.50;;;;;;5008410;28;20575;-68
2022/03/18 06:34:15;;;;;;;5.60;2.85;;;28.40;99.80;;;;;;5010568;28;20064;-69
2022/03/18 06:36:42;;;;;;;5.57;2.35;;;28.20;99.90;;;;;;5018090;28;20049;-66
2022/03/18 06:39:09;;;;;;;5.22;1.95;;;28.10;99.90;;;;;;5012932;28;20041;-66
2022/03/18 06:41:37;;;;;;;3.58;2.15;;;27.90;99.90;;;;;;5004476;28;20045;-68
2022/03/18 06:44:05;;;;;;;4.03;2.40;;;27.80;99.90;;;;;;5023423;28;20059;-68
2022/03/18 06:46:32;;;;;;;7.30;2.22;;;27.70;99.90;;;;;;5014087;28;20030;-69
2022/03/18 06:48:59;;;;;;;5.78;2.50;;;27.50;99.90;;;;;;5004304;28;20018;-68
2022/03/18 06:51:26;;;;;;;4.20;2.40;;;27.40;99.90;;;;;;5019259;28;20029;-66
2022/03/18 06:53:54;;;;;;;5.68;2.65;;;27.30;99.90;;;;;;5005904;28;20185;-66
2022/03/18 06:56:21;;;;;;;3.97;2.70;;;27.10;99.90;;;;;;5006078;28;20438;-69
2022/03/18 06:58:49;;;;;;;5.72;2.35;;;27.10;99.90;;;;;;5002431;28;20613;-69
2022/03/18 07:01:16;;;;;;;5.43;2.33;;;26.90;99.90;;;;;;5013649;28;20292;-68
2022/03/18 07:03:42;;;;;;;8.23;2.88;;;26.90;99.90;;;;;;5010342;28;20121;-68
2022/03/18 07:06:09;;;;;;;7.20;3.50;;;26.80;99.90;;;;;;5011042;28;20370;-66
2022/03/18 07:08:37;;;;;;;6.45;3.45;;;26.70;99.90;;;;;;5015860;28;20032;-68
2022/03/18 07:11:04;;;;;;;5.45;3.53;;;26.50;99.90;;;;;;5012091;28;20034;-68
2022/03/18 07:13:31;;;;;;;5.13;3.40;;;26.40;99.90;;;;;;5007513;28;20038;-68
2022/03/18 07:17:54;;;;;;;8.13;4.43;;;26.30;99.90;;;;;;5014981;28;20030;-68
2022/03/18 07:18:45;;;;;;;8.93;3.72;;;26.20;99.90;;;;;;5010964;28;20127;-68
2022/03/18 07:21:12;;;;;;;13.43;4.05;;;26.10;99.90;;;;;;5000565;28;20026;-66
2022/03/18 07:23:43;;;;;;;7.82;4.10;;;26.00;99.90;;;;;;5003320;28;20030;-66
2022/03/18 07:26:10;;;;;;;5.63;3.30;;;25.90;99.90;;;;;;5007958;28;20030;-67
2022/03/18 07:28:37;;;;;;;11.48;4.00;;;25.70;99.90;;;;;;5009234;28;20026;-66
2022/03/18 07:31:03;;;;;;;6.15;3.00;;;25.60;99.90;;;;;;5015167;28;20505;-68
2022/03/18 07:33:30;;;;;;;6.20;3.20;;;25.60;99.90;;;;;;5013707;28;20025;-68
2022/03/18 07:35:57;;;;;;;8.50;3.15;;;25.40;99.90;;;;;;5012003;28;20018;-68
2022/03/18 07:38:24;;;;;;;9.18;5.03;;;25.30;99.90;;;;;;5006190;28;20038;-67
2022/03/18 07:40:51;;;;;;;7.90;4.57;;;25.30;99.90;;;;;;5017771;28;20029;-68
2022/03/18 07:43:18;;;;;;;8.27;4.03;;;25.30;99.90;;;;;;5016103;28;20121;-68
2022/03/18 07:45:45;;;;;;;9.00;3.80;;;25.20;99.90;;;;;;5011420;28;20026;-68
2022/03/18 07:48:12;;;;;;;11.18;3.67;;;25.10;99.90;;;;;;5013432;28;20024;-69
2022/03/18 07:50:39;;;;;;;9.20;3.53;;;25.00;99.90;;;;;;5012998;28;20582;-68
2022/03/18 07:53:08;;;;;;;9.25;3.70;;;25.00;99.90;;;;;;5009765;28;20030;-68
2022/03/18 07:55:38;;;;;;;8.18;3.53;;;24.90;99.90;;;;;;5002850;28;20028;-68
2022/03/18 07:58:06;;;;;;;8.32;3.90;;;24.80;99.90;;;;;;5000992;28;20024;-66
2022/03/18 08:00:33;;;;;;;9.25;3.90;;;24.70;99.90;;;;;;5006931;28;20037;-68
2022/03/18 08:03:00;;;;;;;7.25;3.67;;;24.60;99.90;;;;;;5013207;28;20033;-67
2022/03/18 08:05:27;;;;;;;5.15;3.30;;;24.60;99.90;;;;;;5011121;28;20056;-66
2022/03/18 08:07:55;;;;;;;9.35;4.25;;;24.60;99.90;;;;;;5005117;28;20026;-68
2022/03/18 08:10:22;;;;;;;8.57;3.70;;;24.50;99.90;;;;;;5010061;28;20030;-67
2022/03/18 08:12:49;;;;;;;6.10;3.80;;;24.40;99.90;;;;;;4996407;28;20034;-68
2022/03/18 08:15:19;;;;;;;8.38;4.50;;;24.30;99.90;;;;;;5004325;28;20034;-66
2022/03/18 08:17:51;;;;;;;5.40;3.70;;;24.30;99.90;;;;;;5006044;28;20022;-66
2022/03/18 08:20:20;;;;;;;7.22;4.68;;;24.20;99.90;;;;;;5006356;28;20160;-68
2022/03/18 08:22:48;;;;;;;8.73;4.43;;;24.20;99.90;;;;;;5002765;28;20026;-68
2022/03/18 08:25:15;;;;;;;7.22;4.32;;;24.10;99.90;;;;;;5003926;28;20069;-68
2022/03/18 08:27:42;;;;;;;6.53;4.70;;;24.10;99.90;;;;;;5003821;28;20028;-66
2022/03/18 08:30:11;;;;;;;9.15;5.75;;;24.00;99.90;;;;;;5003532;28;20057;-69
2022/03/18 08:32:38;;;;;;;12.05;5.93;;;24.10;99.90;;;;;;5006092;28;20030;-68
2022/03/18 08:35:07;;;;;;;11.43;5.80;;;24.00;99.90;;;;;;5016692;28;20034;-65
2022/03/18 08:40:19;;;;;;;6.90;5.00;;;24.00;99.90;;;;;;5009398;28;20564;-65
2022/03/18 08:42:46;;;;;;;9.80;5.30;;;24.10;99.90;;;;;;5010518;28;20030;-66
2022/03/18 08:45:16;;;;;;;6.93;4.82;;;24.00;99.90;;;;;;5013221;28;20519;-66
2022/03/18 08:47:44;;;;;;;10.05;4.68;;;24.10;99.90;;;;;;5014154;28;20108;-69
2022/03/18 08:50:11;;;;;;;6.80;3.72;;;24.10;99.90;;;;;;5008895;28;20084;-69
2022/03/18 08:52:39;;;;;;;6.55;3.88;;;24.10;99.90;;;;;;5022150;28;20113;-65
2022/03/18 08:55:07;;;;;;;9.43;4.68;;;24.10;99.90;;;;;;5008540;28;20017;-65
2022/03/18 08:57:37;;;;;;;7.25;4.07;;;24.10;99.90;;;;;;5011927;28;20046;-67
2022/03/18 09:00:10;;;;;;;7.70;3.83;;;24.10;99.90;;;;;;5015647;28;20397;-68
2022/03/18 09:02:38;;;;;;;7.45;4.53;;;24.10;99.90;;;;;;4993970;28;20057;-65
2022/03/18 09:05:10;;;;;;;6.80;3.63;;;24.00;99.90;;;;;;5024922;28;20427;-68
2022/03/18 09:07:38;;;;;;;5.82;3.70;;;23.90;99.90;;;;;;5013625;28;20032;-68
2022/03/18 09:10:07;;;;;;;4.40;2.75;;;23.60;99.90;;;;;;5012233;28;20036;-65
2022/03/18 09:12:34;;;;;;;2.30;1.98;;;23.20;99.90;;;;;;5019395;28;20021;-66
2022/03/18 09:15:03;;;;;;;3.45;2.25;;;23.10;99.90;;;;;;5024592;28;20028;-67
2022/03/18 09:17:30;;;;;;;3.25;1.92;;;22.90;99.90;;;;;;5018704;28;20037;-65
2022/03/18 09:19:57;;;;;;;5.18;3.03;;;22.80;99.90;;;;;;5021774;28;20154;-67
2022/03/18 09:22:24;;;;;;;3.75;2.50;;;22.70;99.90;;;;;;5022869;28;20022;-67
2022/03/18 09:24:51;;;;;;;4.90;3.15;;;22.70;99.90;;;;;;5000316;28;20200;-69
2022/03/18 09:27:18;;;;;;;5.25;3.50;;;22.60;99.90;;;;;;5019203;28;20022;-69
2022/03/18 09:29:45;;;;;;;4.63;4.13;;;22.40;99.90;;;;;;5014049;28;20084;-67
2022/03/18 09:32:12;;;;;;;4.93;3.97;;;22.30;99.90;;;;;;4993358;28;20037;-70
2022/03/18 09:34:39;;;;;;;4.70;4.22;;;22.30;99.90;;;;;;4998734;28;20499;-67
2022/03/18 09:37:06;;;;;;;5.38;4.07;;;22.20;99.90;;;;;;5021530;28;20557;-68
2022/03/18 09:39:34;;;;;;;5.43;4.82;;;22.20;99.90;;;;;;5012696;28;20063;-68
2022/03/18 09:42:01;;;;;;;7.00;6.40;;;22.10;99.90;;;;;;5021079;28;20034;-66
2022/03/18 09:44:36;;;;;;;16.90;12.80;;;22.10;99.90;;;;;;5022556;28;20032;-68
2022/03/18 09:47:05;;;;;;;12.45;10.63;;;22.20;99.90;;;;;;5010250;28;20021;-67
2022/03/18 09:49:32;;;;;;;7.82;5.57;;;22.10;99.90;;;;;;5023155;28;20508;-63
2022/03/18 09:51:59;;;;;;;4.78;4.20;;;22.00;99.90;;;;;;5012921;28;20022;-63
2022/03/18 09:54:28;;;;;;;8.68;4.85;;;22.00;99.90;;;;;;5015819;28;20372;-65
2022/03/18 09:56:55;;;;;;;4.80;3.47;;;21.90;99.90;;;;;;5013949;28;20508;-65
2022/03/18 09:59:27;;;;;;;4.95;3.70;;;21.80;99.90;;;;;;5011511;28;20026;-68
2022/03/18 10:02:22;;;;;;;6.97;3.20;;;21.80;99.90;;;;;;5016159;28;20055;-68
2022/03/18 10:04:58;;;;;;;4.22;3.47;;;21.80;99.90;;;;;;5009907;28;20029;-69
2022/03/18 10:07:27;;;;;;;6.03;3.30;;;21.80;99.90;;;;;;5022026;28;20540;-66
2022/03/18 10:10:15;;;;;;;7.25;3.38;;;21.80;99.90;;;;;;5020703;28;20164;-67
2022/03/18 10:12:47;;;;;;;6.53;3.42;;;21.80;99.90;;;;;;5020165;28;20048;-67
2022/03/18 10:15:33;;;;;;;6.93;3.63;;;21.70;99.90;;;;;;5020321;28;20479;-67
2022/03/18 10:18:01;;;;;;;5.28;3.53;;;21.70;99.90;;;;;;5022073;28;20475;-64
2022/03/18 10:20:38;;;;;;;8.30;3.90;;;21.80;99.90;;;;;;5015539;28;20022;-63
2022/03/18 10:23:18;;;;;;;6.18;3.83;;;21.70;99.90;;;;;;5015799;28;20034;-64
2022/03/18 10:25:54;;;;;;;8.00;4.13;;;21.70;99.90;;;;;;5023046;28;20032;-67
2022/03/18 10:28:41;;;;;;;5.72;4.25;;;21.70;99.90;;;;;;5020340;28;20404;-64
2022/03/18 10:31:20;;;;;;;6.15;3.60;;;21.70;99.90;;;;;;5021909;28;20025;-65
2022/03/18 10:37:04;;;;;;;6.10;3.65;;;21.70;99.90;;;;;;5028249;22;20057;-66
2022/03/18 10:39:41;;;;;;;5.63;3.78;;;21.70;99.90;;;;;;5019544;28;20120;-66
2022/03/18 10:42:09;;;;;;;8.60;6.38;;;21.70;99.90;;;;;;5021012;28;20791;-65
2022/03/18 10:44:51;;;;;;;11.23;6.28;;;21.70;99.90;;;;;;5021413;28;20037;-66
2022/03/18 10:47:34;;;;;;;10.57;7.55;;;21.70;99.90;;;;;;5019638;28;20033;-66
2022/03/18 10:50:14;;;;;;;12.55;7.13;;;21.70;99.90;;;;;;5020204;28;20431;-67
2022/03/18 10:52:50;;;;;;;6.40;5.07;;;21.70;99.90;;;;;;5021289;28;20112;-66
2022/03/18 10:55:29;;;;;;;10.05;4.68;;;21.80;99.90;;;;;;5021247;28;20033;-65
2022/03/18 10:58:02;;;;;;;6.22;3.45;;;21.90;99.90;;;;;;5020173;28;20041;-65
2022/03/18 11:00:32;;;;;;;6.20;3.90;;;21.90;99.90;;;;;;5020487;28;20096;-65
2022/03/18 11:03:01;;;;;;;6.57;3.85;;;21.90;99.90;;;;;;5021579;28;20215;-66
2022/03/18 11:05:33;;;;;;;7.03;3.92;;;21.80;99.90;;;;;;5019998;28;20022;-65
2022/03/18 11:08:02;;;;;;;6.65;4.03;;;21.70;99.90;;;;;;5002705;28;20045;-67
2022/03/18 11:13:16;;;;;;;6.15;3.58;;;21.70;99.90;;;;;;5021823;28;20112;-66
2022/03/18 11:15:46;;;;;;;7.68;3.28;;;21.70;99.90;;;;;;5020504;28;20034;-66
2022/03/18 11:18:14;;;;;;;6.95;3.65;;;21.70;99.90;;;;;;5019769;28;20091;-66
2022/03/18 11:20:43;;;;;;;6.53;3.70;;;21.70;99.90;;;;;;5018942;28;20029;-67
2022/03/18 11:23:19;;;;;;;6.97;3.58;;;21.60;99.90;;;;;;5020558;28;20040;-66
2022/03/18 11:25:52;;;;;;;8.80;4.05;;;21.60;99.90;;;;;;5020942;28;20443;-67
2022/03/18 11:28:20;;;;;;;8.80;4.57;;;21.60;99.90;;;;;;5021944;28;20025;-66
2022/03/18 11:30:49;;;;;;;11.65;4.63;;;21.60;99.90;;;;;;5022171;28;20059;-65
2022/03/18 11:33:16;;;;;;;5.07;4.20;;;21.50;99.90;;;;;;5021291;28;20029;-65
2022/03/18 11:35:55;;;;;;;6.20;4.53;;;21.50;99.90;;;;;;5019926;28;20151;-68
2022/03/18 11:38:47;;;;;;;5.65;3.63;;;21.60;99.90;;;;;;5017949;28;20045;-66
2022/03/18 11:41:16;;;;;;;8.13;4.72;;;21.60;99.90;;;;;;5018788;28;20567;-68
2022/03/18 11:43:43;;;;;;;7.82;3.95;;;21.70;99.90;;;;;;5018683;28;20446;-66
2022/03/18 11:46:16;;;;;;;6.72;4.85;;;21.70;99.90;;;;;;5021144;28;20025;-66
2022/03/18 11:48:51;;;;;;;5.47;3.85;;;21.60;99.90;;;;;;5020185;28;20491;-67
2022/03/18 11:51:30;;;;;;;7.55;4.32;;;21.70;99.90;;;;;;5019744;28;20091;-66
2022/03/18 11:54:05;;;;;;;8.30;4.03;;;21.80;99.90;;;;;;5019164;28;20488;-66
2022/03/18 11:56:45;;;;;;;6.72;4.18;;;21.70;99.90;;;;;;5020072;28;20096;-68
2022/03/18 11:59:31;;;;;;;5.28;3.95;;;21.80;99.90;;;;;;5019762;28;20442;-67
2022/03/18 12:02:02;;;;;;;5.78;3.90;;;21.90;99.90;;;;;;5022207;28;20036;-67
2022/03/18 12:04:55;;;;;;;7.60;3.72;;;21.80;99.90;;;;;;5022354;28;20065;-66
2022/03/18 12:07:28;;;;;;;9.38;4.68;;;21.70;99.90;;;;;;5020264;28;20049;-67
2022/03/18 12:10:06;;;;;;;8.05;4.53;;;21.80;99.90;;;;;;5024459;28;20095;-67
2022/03/18 12:12:34;;;;;;;8.18;4.53;;;21.90;99.90;;;;;;5023477;28;20068;-67
2022/03/18 12:15:05;;;;;;;7.13;4.30;;;22.00;99.90;;;;;;5023313;28;20025;-68
2022/03/18 12:17:40;;;;;;;11.30;4.50;;;22.00;99.90;;;;;;5025455;28;20021;-67
2022/03/18 12:20:08;;;;;;;9.77;4.50;;;22.00;99.90;;;;;;5023762;28;20799;-66
2022/03/18 12:22:41;;;;;;;10.80;4.20;;;22.10;99.90;;;;;;5025889;28;20026;-66
2022/03/18 12:25:08;;;;;;;8.90;4.82;;;22.20;99.90;;;;;;5026715;28;20026;-66
2022/03/18 12:27:38;;;;;;;11.10;5.45;;;22.20;99.90;;;;;;5025620;28;20036;-66
2022/03/18 12:30:08;;;;;;;11.55;5.70;;;22.10;99.90;;;;;;5026205;28;20022;-69
2022/03/18 12:32:40;;;;;;;8.95;4.65;;;22.00;99.90;;;;;;5026607;28;20024;-68
2022/03/18 12:35:07;;;;;;;7.05;4.07;;;22.10;99.90;;;;;;5025654;28;20022;-68
2022/03/18 12:37:35;;;;;;;12.40;5.35;;;22.00;99.90;;;;;;5026478;28;20092;-66
2022/03/18 12:40:12;;;;;;;11.73;4.47;;;21.90;99.90;;;;;;5024265;28;20790;-67
2022/03/18 12:42:49;;;;;;;8.85;4.80;;;21.90;99.90;;;;;;5024386;28;20225;-67
2022/03/18 12:45:30;;;;;;;9.52;4.80;;;21.90;99.90;;;;;;5024131;28;20021;-64
2022/03/18 12:47:59;;;;;;;10.80;4.78;;;22.00;99.90;;;;;;5023258;28;20052;-66
2022/03/18 12:50:42;;;;;;;10.63;4.63;;;22.00;99.90;;;;;;5024415;28;20022;-65
2022/03/18 12:53:23;;;;;;;8.95;3.90;;;22.10;99.90;;;;;;5022257;28;20578;-66
2022/03/18 12:55:58;;;;;;;9.63;4.18;;;22.10;99.90;;;;;;5022295;28;20488;-67
2022/03/18 12:58:27;;;;;;;7.93;3.38;;;22.10;99.90;;;;;;5023914;28;20057;-66
2022/03/18 13:01:01;;;;;;;9.05;3.97;;;22.20;99.90;;;;;;5023488;28;20040;-69
2022/03/18 13:03:31;;;;;;;5.85;3.50;;;22.20;99.90;;;;;;5021298;28;20476;-67
2022/03/18 13:06:17;;;;;;;10.48;3.88;;;22.20;99.90;;;;;;5023564;28;20151;-68
2022/03/18 13:08:51;;;;;;;11.02;3.75;;;22.20;99.90;;;;;;5023197;28;20036;-66
2022/03/18 13:11:18;;;;;;;8.32;4.05;;;22.10;99.90;;;;;;5023256;28;20037;-68
2022/03/18 13:13:50;;;;;;;7.07;4.07;;;22.00;99.90;;;;;;5023460;28;20559;-70
2022/03/18 13:16:24;;;;;;;9.20;4.32;;;21.90;99.90;;;;;;5022842;28;20061;-67
2022/03/18 13:18:58;;;;;;;8.82;4.03;;;21.90;99.90;;;;;;5022903;28;20033;-66